createdAt,value
2023-01-01T00:00:34.882Z,100252.50
2023-01-01T00:01:40.569Z,100260.84
2023-01-01T00:02:42.936Z,100250.00
2023-01-01T00:03:49.956Z,100240.00
2023-01-01T00:04:52.244Z,100246.72
2023-01-01T00:05:54.386Z,100239.47
2023-01-01T00:06:56.559Z,100243.09
2023-01-01T00:08:04.227Z,100244.75
2023-01-01T00:09:26.116Z,100241.16
2023-01-01T00:10:28.277Z,100244.75
2023-01-01T00:11:30.491Z,100252.28
2023-01-01T00:12:34.729Z,100248.66
2023-01-01T00:13:39.258Z,100250.63
2023-01-01T00:14:44.381Z,100248.97
2023-01-01T00:15:46.631Z,100241.44
2023-01-01T00:16:48.935Z,100254.53
2023-01-01T00:17:51.143Z,100248.97
2023-01-01T00:18:53.341Z,100244.81
2023-01-01T00:19:55.576Z,100234.50
2023-01-01T00:21:13.469Z,100242.84
2023-01-01T00:22:52.577Z,100244.81
2023-01-01T00:23:38.456Z,100242.03
2023-01-01T00:24:40.649Z,100238.13
2023-01-01T00:25:44.616Z,100240.91
2023-01-01T00:26:46.869Z,100241.22
2023-01-01T00:27:49.137Z,100237.28
2023-01-01T00:28:51.393Z,100240.91
2023-01-01T00:29:53.556Z,100244.81
2023-01-01T00:30:55.708Z,100228.63
2023-01-01T00:31:57.958Z,100243.69
2023-01-01T00:33:00.231Z,100236.47
2023-01-01T00:34:02.488Z,100241.72
2023-01-01T00:35:05.068Z,100242.56
2023-01-01T00:36:17.545Z,100248.97
2023-01-01T00:37:19.751Z,100242.28
2023-01-01T00:38:22.010Z,100250.63
2023-01-01T00:39:24.231Z,100231.13
2023-01-01T00:40:26.498Z,100242.56
2023-01-01T00:41:28.706Z,100252.28
2023-01-01T00:42:30.911Z,100241.16
2023-01-01T00:43:33.383Z,100243.94
2023-01-01T00:44:35.564Z,100242.78
2023-01-01T00:45:40.169Z,100241.97
2023-01-01T00:46:42.400Z,100247.84
2023-01-01T00:47:44.711Z,100237.81
2023-01-01T00:48:46.931Z,100253.41
2023-01-01T00:49:49.098Z,100245.06
2023-01-01T00:50:52.819Z,100251.44
2023-01-01T00:51:55.035Z,100251.44
2023-01-01T00:52:59.527Z,100263.44
2023-01-01T00:54:04.729Z,100258.69
2023-01-01T00:55:07.381Z,100255.91
2023-01-01T00:56:09.650Z,100253.94
2023-01-01T00:57:11.862Z,100255.91
2023-01-01T00:58:14.682Z,100253.94
2023-01-01T00:59:16.983Z,100255.09
2023-01-01T01:00:20.352Z,100267.88
2023-01-01T01:01:22.623Z,100267.06
2023-01-01T01:02:24.996Z,100261.47
2023-01-01T01:03:30.739Z,100257.03
2023-01-01T01:04:35.914Z,100270.16
2023-01-01T01:05:38.694Z,100266.22
2023-01-01T01:06:40.919Z,100272.94
2023-01-01T01:07:43.163Z,100264.88
2023-01-01T01:08:46.938Z,100272.09
2023-01-01T01:09:50.250Z,100272.94
2023-01-01T01:10:53.428Z,100276.53
2023-01-01T01:12:17.317Z,100269.28
2023-01-01T01:13:17.896Z,100274.06
2023-01-01T01:14:20.093Z,100275.19
2023-01-01T01:15:22.458Z,100277.66
2023-01-01T01:16:34.798Z,100275.19
2023-01-01T01:17:37.182Z,100276.84
2023-01-01T01:18:39.669Z,100284.66
2023-01-01T01:19:42.293Z,100290.25
2023-01-01T01:20:50.891Z,100283.84
2023-01-01T01:21:53.127Z,100291.91
2023-01-01T01:22:55.368Z,100297.47
2023-01-01T01:23:59.215Z,100293.88
2023-01-01T01:25:02.245Z,100297.47
2023-01-01T01:26:22.009Z,100297.47
2023-01-01T01:27:24.436Z,100305.34
2023-01-01T01:28:27.381Z,100296.97
2023-01-01T01:29:29.529Z,100309.75
2023-01-01T01:30:31.756Z,100307.28
2023-01-01T01:31:37.326Z,100316.50
2023-01-01T01:32:39.505Z,100306.16
2023-01-01T01:33:45.005Z,100300.56
2023-01-01T01:34:47.527Z,100312.53
2023-01-01T01:35:52.739Z,100316.50
2023-01-01T01:36:55.379Z,100318.44
2023-01-01T01:37:57.693Z,100315.63
2023-01-01T01:38:59.872Z,100318.44
2023-01-01T01:40:02.224Z,100315.94
2023-01-01T01:41:04.829Z,100315.94
2023-01-01T01:42:07.295Z,100307.03
2023-01-01T01:43:22.884Z,100308.72
2023-01-01T01:44:43.751Z,100314.28
2023-01-01T01:45:46.005Z,100307.03
2023-01-01T01:46:48.188Z,100310.97
2023-01-01T01:47:55.789Z,100302.91
2023-01-01T01:49:04.158Z,100306.00
2023-01-01T01:50:20.977Z,100314.66
2023-01-01T01:51:33.191Z,100322.19
2023-01-01T01:52:38.746Z,100323.31
2023-01-01T01:53:46.371Z,100323.63
2023-01-01T01:54:49.241Z,100325.56
2023-01-01T01:55:58.057Z,100333.94
2023-01-01T01:57:05.135Z,100328.16
2023-01-01T01:58:11.179Z,100319.25
2023-01-01T01:59:14.543Z,100323.16
2023-01-01T02:00:17.082Z,100318.19
2023-01-01T02:01:19.331Z,100322.09
2023-01-01T02:02:34.492Z,100319.31
2023-01-01T02:03:50.297Z,100326.84
2023-01-01T02:04:52.741Z,100322.41
2023-01-01T02:05:54.986Z,100329.09
2023-01-01T02:06:57.269Z,100324.97
2023-01-01T02:08:00.544Z,100319.38
2023-01-01T02:09:08.880Z,100318.88
2023-01-01T02:10:11.048Z,100318.03
2023-01-01T02:11:17.403Z,100313.88
2023-01-01T02:12:22.374Z,100316.16
2023-01-01T02:13:24.589Z,100316.16
2023-01-01T02:14:26.909Z,100316.41
2023-01-01T02:15:34.984Z,100316.41
2023-01-01T02:16:46.620Z,100315.06
2023-01-01T02:17:59.965Z,100323.41
2023-01-01T02:19:18.550Z,100309.78
2023-01-01T02:21:05.816Z,100304.84
2023-01-01T02:22:33.120Z,100315.13
2023-01-01T02:23:55.223Z,100312.94
2023-01-01T02:25:23.367Z,100301.25
2023-01-01T02:26:48.866Z,100307.13
2023-01-01T02:27:57.603Z,100309.41
2023-01-01T02:29:10.339Z,100302.19
2023-01-01T02:30:13.182Z,100302.47
2023-01-01T02:31:23.792Z,100301.94
2023-01-01T02:32:41.830Z,100315.03
2023-01-01T02:33:45.688Z,100309.47
2023-01-01T02:34:58.142Z,100310.03
2023-01-01T02:36:04.308Z,100308.41
2023-01-01T02:37:10.178Z,100301.19
2023-01-01T02:38:32.318Z,100305.06
2023-01-01T02:39:39.635Z,100316.53
2023-01-01T02:40:51.175Z,100303.13
2023-01-01T02:41:56.454Z,100307.06
2023-01-01T02:42:59.791Z,100306.22
2023-01-01T02:45:15.367Z,100311.53
2023-01-01T02:47:22.197Z,100310.72
2023-01-01T02:48:47.462Z,100307.13
2023-01-01T02:50:19.032Z,100300.72
2023-01-01T02:51:43.751Z,100309.38
2023-01-01T02:53:28.159Z,100308.56
2023-01-01T02:54:55.005Z,100302.44
2023-01-01T02:56:08.709Z,100311.63
2023-01-01T02:57:31.352Z,100305.22
2023-01-01T02:58:59.648Z,100306.63
2023-01-01T03:00:27.977Z,100309.41
2023-01-01T03:01:50.893Z,100313.63
2023-01-01T03:03:25.892Z,100307.25
2023-01-01T03:05:05.138Z,100313.94
2023-01-01T03:06:29.772Z,100313.13
2023-01-01T03:08:16.051Z,100304.22
2023-01-01T03:09:31.290Z,100301.72
2023-01-01T03:10:36.766Z,100306.19
2023-01-01T03:12:18.409Z,100299.25
2023-01-01T03:13:49.196Z,100306.75
2023-01-01T03:15:01.515Z,100305.94
2023-01-01T03:16:10.759Z,100304.25
2023-01-01T03:17:29.577Z,100299.81
2023-01-01T03:19:10.606Z,100303.72
2023-01-01T03:20:19.438Z,100308.16
2023-01-01T03:21:22.439Z,100302.91
2023-01-01T03:22:35.211Z,100309.88
2023-01-01T03:23:49.527Z,100304.31
2023-01-01T03:24:56.872Z,100304.88
2023-01-01T03:26:05.714Z,100301.22
2023-01-01T03:27:13.667Z,100297.63
2023-01-01T03:28:25.500Z,100308.78
2023-01-01T03:29:32.458Z,100302.38
2023-01-01T03:30:37.868Z,100297.94
2023-01-01T03:31:45.220Z,100299.88
2023-01-01T03:33:00.557Z,100295.44
2023-01-01T03:34:07.514Z,100302.66
2023-01-01T03:35:12.320Z,100286.81
2023-01-01T03:36:34.212Z,100293.50
2023-01-01T03:37:36.652Z,100293.50
2023-01-01T03:38:43.047Z,100304.31
2023-01-01T03:39:51.327Z,100302.66
2023-01-01T03:41:01.973Z,100300.72
2023-01-01T03:42:17.690Z,100306.28
2023-01-01T03:43:44.757Z,100296.56
2023-01-01T03:44:58.372Z,100297.38
2023-01-01T03:46:01.729Z,100303.81
2023-01-01T03:47:06.622Z,100301.03
2023-01-01T03:48:09.950Z,100291.00
2023-01-01T03:49:16.867Z,100295.72
2023-01-01T03:50:22.883Z,100304.06
2023-01-01T03:51:36.498Z,100300.47
2023-01-01T03:53:06.672Z,100299.66
2023-01-01T03:54:21.169Z,100303.25
2023-01-01T03:55:43.089Z,100304.38
2023-01-01T03:56:54.785Z,100301.59
2023-01-01T03:58:03.927Z,100304.38
2023-01-01T03:59:09.815Z,100307.16
2023-01-01T04:00:19.098Z,100303.56
2023-01-01T04:01:27.859Z,100306.34
2023-01-01T04:02:40.878Z,100302.69
2023-01-01T04:03:43.539Z,100312.19
2023-01-01T04:04:49.160Z,100303.00
2023-01-01T04:05:51.711Z,100309.41
2023-01-01T04:06:55.624Z,100312.47
2023-01-01T04:08:02.150Z,100313.63
2023-01-01T04:09:08.520Z,100315.56
2023-01-01T04:10:19.709Z,100318.34
2023-01-01T04:11:44.404Z,100311.09
2023-01-01T04:12:53.844Z,100316.66
2023-01-01T04:13:56.293Z,100316.66
2023-01-01T04:14:58.466Z,100310.59
2023-01-01T04:16:00.699Z,100310.03
2023-01-01T04:17:05.245Z,100319.22
2023-01-01T04:18:07.493Z,100315.09
2023-01-01T04:19:09.660Z,100313.41
2023-01-01T04:20:12.463Z,100308.16
2023-01-01T04:21:14.630Z,100311.75
2023-01-01T04:22:18.561Z,100315.66
2023-01-01T04:23:20.713Z,100308.44
2023-01-01T04:24:24.242Z,100323.47
2023-01-01T04:25:27.428Z,100314.56
2023-01-01T04:26:29.577Z,100320.16
2023-01-01T04:27:31.786Z,100320.44
2023-01-01T04:28:33.954Z,100319.63
2023-01-01T04:29:36.434Z,100320.75
2023-01-01T04:31:39.576Z,100320.19
2023-01-01T04:32:42.809Z,100326.88
2023-01-01T04:33:45.043Z,100318.81
2023-01-01T04:34:47.222Z,100320.78
2023-01-01T04:35:49.373Z,100316.63
2023-01-01T04:36:52.103Z,100334.44
2023-01-01T04:37:54.472Z,100331.94
2023-01-01T04:38:56.640Z,100333.63
2023-01-01T04:40:01.990Z,100331.09
2023-01-01T04:41:05.725Z,100330.28
2023-01-01T04:42:08.024Z,100329.16
2023-01-01T04:43:10.235Z,100327.78
2023-01-01T04:44:12.405Z,100323.34
2023-01-01T04:45:15.497Z,100331.69
2023-01-01T04:46:19.639Z,100330.03
2023-01-01T04:47:22.349Z,100325.63
2023-01-01T04:48:25.301Z,100325.06
2023-01-01T04:49:27.758Z,100332.28
2023-01-01T04:50:30.519Z,100326.72
2023-01-01T04:51:32.659Z,100319.50
2023-01-01T04:52:34.867Z,100327.03
2023-01-01T04:53:37.070Z,100326.19
2023-01-01T04:54:39.523Z,100330.91
2023-01-01T04:55:41.758Z,100330.38
2023-01-01T04:56:43.955Z,100327.59
2023-01-01T04:57:48.424Z,100335.94
2023-01-01T04:58:50.758Z,100325.09
2023-01-01T04:59:53.092Z,100328.69
2023-01-01T05:00:55.345Z,100339.81
2023-01-01T05:01:58.617Z,100330.38
2023-01-01T05:03:00.948Z,100329.84
2023-01-01T05:04:03.267Z,100332.31
2023-01-01T05:05:05.626Z,100332.63
2023-01-01T05:06:11.800Z,100332.63
2023-01-01T05:07:13.979Z,100342.91
2023-01-01T05:08:16.141Z,100338.19
2023-01-01T05:09:18.564Z,100341.22
2023-01-01T05:10:20.727Z,100342.09
2023-01-01T05:11:27.615Z,100337.63
2023-01-01T05:12:30.033Z,100334.03
2023-01-01T05:13:34.427Z,100339.59
2023-01-01T05:14:36.577Z,100332.88
2023-01-01T05:15:38.768Z,100332.88
2023-01-01T05:16:41.420Z,100330.41
2023-01-01T05:17:43.735Z,100339.59
2023-01-01T05:18:47.629Z,100338.75
2023-01-01T05:19:49.842Z,100339.59
2023-01-01T05:20:52.214Z,100339.59
2023-01-01T05:21:54.460Z,100333.47
2023-01-01T05:22:56.674Z,100337.06
2023-01-01T05:24:04.473Z,100331.53
2023-01-01T05:25:07.221Z,100338.22
2023-01-01T05:26:13.509Z,100341.00
2023-01-01T05:27:15.699Z,100332.94
2023-01-01T05:28:17.897Z,100339.34
2023-01-01T05:29:20.119Z,100335.72
2023-01-01T05:30:22.320Z,100337.66
2023-01-01T05:31:29.115Z,100344.91
2023-01-01T05:32:31.298Z,100342.94
2023-01-01T05:33:35.374Z,100344.91
2023-01-01T05:35:38.721Z,100344.06
2023-01-01T05:36:41.141Z,100347.69
2023-01-01T05:37:43.301Z,100349.34
2023-01-01T05:38:45.671Z,100345.72
2023-01-01T05:39:49.570Z,100341.81
2023-01-01T05:40:51.839Z,100333.78
2023-01-01T05:41:54.092Z,100342.13
2023-01-01T05:42:56.451Z,100341.81
2023-01-01T05:43:58.672Z,100338.22
2023-01-01T05:45:00.999Z,100345.41
2023-01-01T05:46:05.659Z,100341.81
2023-01-01T05:47:07.932Z,100339.84
2023-01-01T05:48:11.603Z,100345.16
2023-01-01T05:49:13.916Z,100343.19
2023-01-01T05:50:16.260Z,100340.16
2023-01-01T05:51:21.160Z,100347.38
2023-01-01T05:52:26.773Z,100344.59
2023-01-01T05:53:33.498Z,100347.09
2023-01-01T05:54:35.669Z,100346.28
2023-01-01T05:55:37.875Z,100343.50
2023-01-01T05:56:40.145Z,100339.59
2023-01-01T05:57:42.432Z,100341.22
2023-01-01T05:58:45.264Z,100340.41
2023-01-01T05:59:47.445Z,100344.31
2023-01-01T06:00:49.613Z,100337.63
2023-01-01T06:01:51.888Z,100341.22
2023-01-01T06:02:55.229Z,100337.63
2023-01-01T06:03:59.860Z,100342.91
2023-01-01T06:05:02.321Z,100329.84
2023-01-01T06:06:06.399Z,100337.03
2023-01-01T06:07:08.606Z,100338.19
2023-01-01T06:08:11.265Z,100332.63
2023-01-01T06:09:13.431Z,100336.22
2023-01-01T06:10:15.724Z,100331.78
2023-01-01T06:11:18.606Z,100337.03
2023-01-01T06:12:21.070Z,100333.44
2023-01-01T06:13:23.208Z,100332.63
2023-01-01T06:14:25.393Z,100333.16
2023-01-01T06:15:30.194Z,100332.31
2023-01-01T06:16:33.106Z,100342.34
2023-01-01T06:17:35.641Z,100329.53
2023-01-01T06:18:38.345Z,100337.59
2023-01-01T06:19:40.542Z,100335.09
2023-01-01T06:20:43.710Z,100340.66
2023-01-01T06:21:45.917Z,100338.72
2023-01-01T06:22:48.082Z,100345.94
2023-01-01T06:23:51.961Z,100337.59
2023-01-01T06:24:56.394Z,100347.06
2023-01-01T06:26:05.321Z,100347.06
2023-01-01T06:27:07.662Z,100343.44
2023-01-01T06:28:11.255Z,100345.94
2023-01-01T06:29:13.427Z,100352.31
2023-01-01T06:30:15.618Z,100347.59
2023-01-01T06:31:20.961Z,100353.97
2023-01-01T06:32:23.462Z,100357.63
2023-01-01T06:33:25.698Z,100351.22
2023-01-01T06:34:27.844Z,100351.22
2023-01-01T06:35:30.352Z,100349.53
2023-01-01T06:36:32.620Z,100351.22
2023-01-01T06:37:37.030Z,100349.28
2023-01-01T06:38:42.662Z,100359.25
2023-01-01T06:39:45.910Z,100358.44
2023-01-01T06:40:58.980Z,100359.81
2023-01-01T06:42:01.145Z,100363.41
2023-01-01T06:43:03.349Z,100367.34
2023-01-01T06:44:05.762Z,100369.81
2023-01-01T06:45:08.792Z,100369.81
2023-01-01T06:46:22.404Z,100369.81
2023-01-01T06:47:24.646Z,100377.00
2023-01-01T06:48:28.785Z,100370.63
2023-01-01T06:49:30.994Z,100377.88
2023-01-01T06:50:33.187Z,100380.66
2023-01-01T06:51:39.351Z,100385.09
2023-01-01T06:52:41.527Z,100383.94
2023-01-01T06:53:43.783Z,100387.59
2023-01-01T06:54:45.963Z,100392.28
2023-01-01T06:55:53.403Z,100386.72
2023-01-01T06:56:59.194Z,100393.97
2023-01-01T06:58:01.375Z,100386.72
2023-01-01T06:59:04.553Z,100394.81
2023-01-01T07:00:07.480Z,100397.59
2023-01-01T07:01:12.175Z,100406.75
2023-01-01T07:02:14.587Z,100400.91
2023-01-01T07:03:16.938Z,100409.25
2023-01-01T07:04:19.187Z,100408.41
2023-01-01T07:05:21.328Z,100410.34
2023-01-01T07:06:24.394Z,100406.75
2023-01-01T07:07:31.137Z,100405.63
2023-01-01T07:08:36.746Z,100405.34
2023-01-01T07:09:38.934Z,100405.34
2023-01-01T07:10:41.103Z,100407.88
2023-01-01T07:11:43.316Z,100403.41
2023-01-01T07:12:45.492Z,100405.38
2023-01-01T07:13:47.725Z,100404.28
2023-01-01T07:14:49.909Z,100407.56
2023-01-01T07:15:53.070Z,100410.66
2023-01-01T07:16:55.335Z,100406.75
2023-01-01T07:17:57.471Z,100397.59
2023-01-01T07:19:01.347Z,100406.19
2023-01-01T07:20:03.759Z,100415.41
2023-01-01T07:21:08.039Z,100412.91
2023-01-01T07:22:11.035Z,100411.75
2023-01-01T07:23:13.292Z,100416.50
2023-01-01T07:24:16.453Z,100409.84
2023-01-01T07:25:18.710Z,100425.97
2023-01-01T07:26:20.937Z,100415.69
2023-01-01T07:27:23.206Z,100433.19
2023-01-01T07:28:26.266Z,100443.50
2023-01-01T07:29:28.438Z,100427.94
2023-01-01T07:30:30.663Z,100437.94
2023-01-01T07:31:32.965Z,100438.75
2023-01-01T07:32:35.273Z,100447.09
2023-01-01T07:33:37.418Z,100442.66
2023-01-01T07:34:39.549Z,100446.00
2023-01-01T07:35:41.880Z,100442.09
2023-01-01T07:36:44.041Z,100444.03
2023-01-01T07:37:46.252Z,100441.25
2023-01-01T07:38:48.414Z,100449.28
2023-01-01T07:39:50.707Z,100441.81
2023-01-01T07:40:53.230Z,100449.59
2023-01-01T07:41:55.432Z,100448.47
2023-01-01T07:42:57.843Z,100463.22
2023-01-01T07:44:00.311Z,100467.13
2023-01-01T07:45:02.865Z,100466.00
2023-01-01T07:46:05.316Z,100473.50
2023-01-01T07:47:24.482Z,100474.34
2023-01-01T07:48:27.030Z,100483.22
2023-01-01T07:49:29.167Z,100490.47
2023-01-01T07:50:32.973Z,100492.41
2023-01-01T07:51:35.168Z,100490.47
2023-01-01T07:52:37.319Z,100495.19
2023-01-01T07:53:39.486Z,100497.16
2023-01-01T07:54:41.692Z,100493.25
2023-01-01T07:55:45.798Z,100497.69
2023-01-01T07:56:47.963Z,100506.03
2023-01-01T07:57:50.114Z,100511.63
2023-01-01T07:58:52.339Z,100508.84
2023-01-01T07:59:54.547Z,100505.19
2023-01-01T08:00:56.716Z,100509.66
2023-01-01T08:01:58.994Z,100515.22
2023-01-01T08:03:01.436Z,100523.25
2023-01-01T08:04:06.634Z,100522.16
2023-01-01T08:05:09.086Z,100508.25
2023-01-01T08:06:13.444Z,100509.06
2023-01-01T08:07:15.634Z,100516.59
2023-01-01T08:08:17.763Z,100509.63
2023-01-01T08:09:19.945Z,100521.56
2023-01-01T08:10:22.299Z,100505.72
2023-01-01T08:11:24.459Z,100514.06
2023-01-01T08:12:26.727Z,100508.22
2023-01-01T08:13:28.887Z,100502.66
2023-01-01T08:14:31.066Z,100506.00
2023-01-01T08:15:33.655Z,100510.69
2023-01-01T08:16:35.919Z,100499.28
2023-01-01T08:17:44.272Z,100510.41
2023-01-01T08:18:48.809Z,100510.41
2023-01-01T08:19:52.221Z,100502.91
2023-01-01T08:20:54.474Z,100498.97
2023-01-01T08:21:56.720Z,100501.75
2023-01-01T08:23:04.580Z,100506.22
2023-01-01T08:24:09.198Z,100503.13
2023-01-01T08:25:11.425Z,100502.88
2023-01-01T08:26:17.936Z,100504.50
2023-01-01T08:27:20.083Z,100505.38
2023-01-01T08:28:22.267Z,100515.09
2023-01-01T08:29:24.428Z,100511.19
2023-01-01T08:30:26.724Z,100507.00
2023-01-01T08:31:28.906Z,100515.34
2023-01-01T08:32:31.074Z,100518.94
2023-01-01T08:33:33.224Z,100514.75
2023-01-01T08:34:35.399Z,100518.09
2023-01-01T08:35:41.732Z,100506.66
2023-01-01T08:36:43.886Z,100511.94
2023-01-01T08:37:46.092Z,100505.25
2023-01-01T08:38:48.205Z,100508.56
2023-01-01T08:39:52.405Z,100500.78
2023-01-01T08:40:54.842Z,100511.63
2023-01-01T08:41:57.010Z,100521.34
2023-01-01T08:42:59.144Z,100520.22
2023-01-01T08:44:01.446Z,100512.69
2023-01-01T08:45:03.869Z,100519.63
2023-01-01T08:46:06.103Z,100520.19
2023-01-01T08:47:17.536Z,100524.34
2023-01-01T08:48:20.277Z,100519.28
2023-01-01T08:49:24.379Z,100521.81
2023-01-01T08:50:26.708Z,100525.94
2023-01-01T08:51:28.936Z,100533.72
2023-01-01T08:52:31.563Z,100519.50
2023-01-01T08:53:33.724Z,100519.50
2023-01-01T08:54:35.979Z,100517.31
2023-01-01T08:55:38.136Z,100533.72
2023-01-01T08:56:40.313Z,100515.91
2023-01-01T08:57:42.544Z,100519.50
2023-01-01T08:58:44.769Z,100523.97
2023-01-01T08:59:46.972Z,100529.78
2023-01-01T09:00:49.117Z,100528.63
2023-01-01T09:01:51.364Z,100534.75
2023-01-01T09:02:53.767Z,100530.00
2023-01-01T09:03:55.972Z,100529.44
2023-01-01T09:04:58.151Z,100536.69
2023-01-01T09:06:00.333Z,100535.53
2023-01-01T09:07:02.593Z,100526.88
2023-01-01T09:08:04.799Z,100538.28
2023-01-01T09:09:06.965Z,100541.06
2023-01-01T09:10:09.459Z,100540.75
2023-01-01T09:11:22.105Z,100545.22
2023-01-01T09:12:27.072Z,100547.69
2023-01-01T09:13:30.798Z,100550.50
2023-01-01T09:14:34.147Z,100552.16
2023-01-01T09:15:36.672Z,100559.16
2023-01-01T09:16:44.187Z,100558.84
2023-01-01T09:17:46.696Z,100556.59
2023-01-01T09:18:48.988Z,100561.38
2023-01-01T09:19:51.198Z,100563.84
2023-01-01T09:20:53.521Z,100576.94
2023-01-01T09:21:55.677Z,100574.16
2023-01-01T09:23:04.000Z,100571.38
2023-01-01T09:24:08.874Z,100579.44
2023-01-01T09:25:11.053Z,100571.09
2023-01-01T09:26:13.278Z,100582.25
2023-01-01T09:27:15.444Z,100574.69
2023-01-01T09:28:23.418Z,100583.06
2023-01-01T09:29:28.276Z,100572.47
2023-01-01T09:30:30.700Z,100572.16
2023-01-01T09:31:34.058Z,100583.59
2023-01-01T09:32:36.544Z,100573.00
2023-01-01T09:33:39.929Z,100578.56
2023-01-01T09:34:46.044Z,100575.47
2023-01-01T09:35:51.085Z,100581.91
2023-01-01T09:36:53.239Z,100574.66
2023-01-01T09:37:55.794Z,100578.25
2023-01-01T09:38:59.418Z,100577.16
2023-01-01T09:40:01.729Z,100572.41
2023-01-01T09:41:27.012Z,100581.59
2023-01-01T09:42:50.599Z,100580.47
2023-01-01T09:44:01.770Z,100578.22
2023-01-01T09:45:28.010Z,100584.63
2023-01-01T09:46:32.095Z,100570.69
2023-01-01T09:47:41.111Z,100568.75
2023-01-01T09:48:56.678Z,100581.25
2023-01-01T09:50:07.492Z,100579.28
2023-01-01T09:51:16.890Z,100576.22
2023-01-01T09:52:21.164Z,100571.47
2023-01-01T09:53:41.358Z,100579.53
2023-01-01T09:54:51.615Z,100585.66
2023-01-01T09:55:58.709Z,100573.41
2023-01-01T09:57:04.075Z,100586.72
2023-01-01T09:58:10.204Z,100578.94
2023-01-01T09:59:12.536Z,100575.84
2023-01-01T10:00:18.468Z,100581.94
2023-01-01T10:01:39.192Z,100573.28
2023-01-01T10:03:23.365Z,100567.13
2023-01-01T10:04:28.539Z,100580.16
2023-01-01T10:05:40.024Z,100576.25
2023-01-01T10:07:01.803Z,100574.00
2023-01-01T10:08:44.387Z,100575.38
2023-01-01T10:10:16.173Z,100575.63
2023-01-01T10:11:29.704Z,100578.63
2023-01-01T10:12:56.532Z,100577.22
2023-01-01T10:14:01.755Z,100565.50
2023-01-01T10:15:17.358Z,100576.03
2023-01-01T10:16:41.707Z,100578.25
2023-01-01T10:17:50.959Z,100573.22
2023-01-01T10:18:56.727Z,100583.78
2023-01-01T10:20:03.100Z,100587.41
2023-01-01T10:21:17.570Z,100582.06
2023-01-01T10:22:36.506Z,100592.63
2023-01-01T10:23:58.935Z,100590.09
2023-01-01T10:25:11.570Z,100587.81
2023-01-01T10:26:18.350Z,100604.78
2023-01-01T10:27:39.834Z,100602.81
2023-01-01T10:29:05.745Z,100591.09
2023-01-01T10:30:17.828Z,100593.56
2023-01-01T10:31:30.495Z,100600.50
2023-01-01T10:32:35.645Z,100606.91
2023-01-01T10:33:37.810Z,100604.66
2023-01-01T10:34:39.965Z,100602.69
2023-01-01T10:35:46.194Z,100601.56
2023-01-01T10:36:52.116Z,100610.50
2023-01-01T10:37:54.319Z,100602.13
2023-01-01T10:38:56.465Z,100594.25
2023-01-01T10:39:58.807Z,100586.75
2023-01-01T10:41:10.910Z,100589.81
2023-01-01T10:42:18.025Z,100582.81
2023-01-01T10:43:20.175Z,100571.63
2023-01-01T10:44:29.613Z,100559.34
2023-01-01T10:45:35.453Z,100570.28
2023-01-01T10:46:45.097Z,100561.63
2023-01-01T10:48:17.910Z,100566.66
2023-01-01T10:49:20.109Z,100543.22
2023-01-01T10:50:22.338Z,100558.84
2023-01-01T10:51:26.864Z,100555.19
2023-01-01T10:52:40.676Z,100577.22
2023-01-01T10:53:50.589Z,100567.72
2023-01-01T10:54:53.043Z,100558.84
2023-01-01T10:56:12.281Z,100577.75
2023-01-01T10:57:29.708Z,100573.00
2023-01-01T10:58:48.902Z,100578.31
2023-01-01T10:59:54.416Z,100583.88
2023-01-01T11:01:02.095Z,100586.38
2023-01-01T11:02:28.341Z,100588.31
2023-01-01T11:03:31.209Z,100583.28
2023-01-01T11:04:34.864Z,100586.63
2023-01-01T11:05:37.194Z,100581.03
2023-01-01T11:06:43.273Z,100590.22
2023-01-01T11:07:46.264Z,100590.75
2023-01-01T11:08:52.723Z,100593.25
2023-01-01T11:10:04.510Z,100576.50
2023-01-01T11:11:07.235Z,100590.75
2023-01-01T11:12:54.742Z,100595.19
2023-01-01T11:13:43.104Z,100603.00
2023-01-01T11:14:53.298Z,100603.00
2023-01-01T11:15:56.158Z,100598.75
2023-01-01T11:16:59.091Z,100600.44
2023-01-01T11:18:07.197Z,100590.91
2023-01-01T11:19:25.200Z,100598.97
2023-01-01T11:20:27.638Z,100597.03
2023-01-01T11:21:30.019Z,100595.91
2023-01-01T11:22:53.335Z,100600.34
2023-01-01T11:24:20.664Z,100596.41
2023-01-01T11:25:26.405Z,100603.38
2023-01-01T11:26:28.643Z,100590.25
2023-01-01T11:27:30.930Z,100586.63
2023-01-01T11:28:35.656Z,100589.94
2023-01-01T11:29:37.928Z,100583.25
2023-01-01T11:30:40.311Z,100579.59
2023-01-01T11:31:45.698Z,100576.50
2023-01-01T11:32:55.244Z,100567.31
2023-01-01T11:33:57.982Z,100566.50
2023-01-01T11:35:06.490Z,100567.00
2023-01-01T11:36:09.098Z,100561.72
2023-01-01T11:37:14.283Z,100553.03
2023-01-01T11:38:27.589Z,100551.38
2023-01-01T11:39:37.441Z,100551.38
2023-01-01T11:40:47.427Z,100553.03
2023-01-01T11:41:52.723Z,100538.56
2023-01-01T11:43:00.133Z,100533.50
2023-01-01T11:44:02.377Z,100551.38
2023-01-01T11:45:17.634Z,100546.63
2023-01-01T11:46:24.915Z,100545.78
2023-01-01T11:47:31.841Z,100546.63
2023-01-01T11:48:35.094Z,100540.19
2023-01-01T11:49:37.509Z,100541.34
2023-01-01T11:50:53.664Z,100542.19
2023-01-01T11:51:58.128Z,100550.56
2023-01-01T11:53:22.841Z,100548.06
2023-01-01T11:54:33.175Z,100546.09
2023-01-01T11:55:43.413Z,100551.69
2023-01-01T11:56:48.273Z,100556.94
2023-01-01T11:58:19.335Z,100551.69
2023-01-01T11:59:29.289Z,100548.59
2023-01-01T12:00:35.848Z,100556.13
2023-01-01T12:01:52.776Z,100545.78
2023-01-01T12:03:04.363Z,100555.00
2023-01-01T12:04:11.888Z,100555.00
2023-01-01T12:05:22.691Z,100551.38
2023-01-01T12:06:33.021Z,100536.59
2023-01-01T12:07:38.534Z,100572.88
2023-01-01T12:08:56.298Z,100568.44
2023-01-01T12:10:03.591Z,100565.34
2023-01-01T12:11:11.995Z,100573.72
2023-01-01T12:12:41.680Z,100572.56
2023-01-01T12:14:02.168Z,100567.84
2023-01-01T12:15:20.421Z,100558.31
2023-01-01T12:16:43.576Z,100554.41
2023-01-01T12:18:16.541Z,100542.09
2023-01-01T12:19:28.086Z,100547.69
2023-01-01T12:20:38.256Z,100552.44
2023-01-01T12:21:49.089Z,100558.84
2023-01-01T12:22:56.748Z,100557.72
2023-01-01T12:23:59.033Z,100553.28
2023-01-01T12:25:02.907Z,100558.53
2023-01-01T12:26:33.297Z,100555.75
2023-01-01T12:27:59.459Z,100565.78
2023-01-01T12:29:23.673Z,100562.19
2023-01-01T12:31:01.627Z,100559.41
2023-01-01T12:32:38.940Z,100547.06
2023-01-01T12:34:11.959Z,100560.22
2023-01-01T12:35:51.640Z,100557.41
2023-01-01T12:37:05.624Z,100558.25
2023-01-01T12:38:30.762Z,100564.97
2023-01-01T12:40:17.178Z,100556.06
2023-01-01T12:41:44.102Z,100556.38
2023-01-01T12:43:01.569Z,100559.47
2023-01-01T12:44:29.876Z,100550.56
2023-01-01T12:46:03.420Z,100551.69
2023-01-01T12:47:41.977Z,100552.81
2023-01-01T12:48:47.066Z,100555.09
2023-01-01T12:50:36.386Z,100544.50
2023-01-01T12:51:53.325Z,100550.94
2023-01-01T12:53:07.816Z,100549.25